Time;durP1;ratioP1;P1;durP2;ratioP2;P2;SDS_P1;SDS_P2;PMS_P1;PMS_P2;Temp;Humidity;BMP_temperature;BMP_pressure;BME280_temperature;BME280_humidity;BME280_pressure;Samples;Min_cycle;Max_cycle;Signal;HPM_P1;HPM_P2
2022/04/06 00:01:47;;;;;;;5.87;5.30;;;12.00;1.00;;;;;;5106653;28;20870;-60
2022/04/06 00:04:12;;;;;;;5.00;4.43;;;12.00;1.00;;;;;;5101201;28;20977;-61
2022/04/06 00:06:38;;;;;;;4.90;4.40;;;12.00;1.00;;;;;;5094287;28;20485;-61
2022/04/06 00:09:04;;;;;;;5.30;4.80;;;12.10;1.00;;;;;;5101132;28;20655;-60
2022/04/06 00:11:30;;;;;;;5.93;5.10;;;12.10;1.00;;;;;;5095729;28;20647;-60
2022/04/06 00:13:56;;;;;;;5.57;4.60;;;12.20;1.00;;;;;;5105136;28;20436;-62
2022/04/06 00:16:22;;;;;;;5.33;4.83;;;12.30;1.00;;;;;;5105889;28;20581;-60
2022/04/06 00:18:47;;;;;;;5.13;4.63;;;12.30;1.00;;;;;;5095305;28;20523;-60
2022/04/06 00:21:13;;;;;;;5.47;4.47;;;12.30;1.00;;;;;;5092732;28;20174;-60
2022/04/06 00:23:39;;;;;;;5.40;4.90;;;12.30;1.00;;;;;;5103990;28;20193;-60
2022/04/06 00:26:05;;;;;;;6.90;5.33;;;12.30;1.00;;;;;;5090314;28;20186;-60
2022/04/06 00:28:31;;;;;;;5.13;4.70;;;12.40;1.00;;;;;;5091020;28;20179;-61
2022/04/06 00:30:57;;;;;;;6.57;5.97;;;12.40;1.00;;;;;;5091566;28;20471;-60
2022/04/06 00:33:22;;;;;;;6.73;5.80;;;12.20;1.00;;;;;;5096425;28;20961;-61
2022/04/06 00:35:48;;;;;;;5.53;4.57;;;12.20;1.00;;;;;;5092352;28;20450;-60
2022/04/06 00:38:14;;;;;;;5.83;5.23;;;12.20;1.00;;;;;;5094009;28;20179;-59
2022/04/06 00:40:40;;;;;;;6.10;5.50;;;12.20;1.00;;;;;;5089848;28;20183;-59
2022/04/06 00:43:13;;;;;;;6.47;5.23;;;12.20;1.00;;;;;;5094584;28;20443;-60
2022/04/06 00:45:40;;;;;;;7.60;5.47;;;12.30;1.00;;;;;;5104624;28;20263;-58
2022/04/06 00:48:07;;;;;;;6.63;5.93;;;12.30;1.00;;;;;;5098161;28;20443;-62
2022/04/06 00:50:33;;;;;;;6.50;5.87;;;12.20;1.00;;;;;;5098856;28;20548;-61
2022/04/06 00:52:59;;;;;;;6.97;6.27;;;12.10;1.00;;;;;;5097378;28;20490;-61
2022/04/06 00:55:29;;;;;;;7.73;6.53;;;12.00;1.00;;;;;;5094909;28;20443;-61
2022/04/06 00:57:56;;;;;;;7.30;6.37;;;12.00;1.00;;;;;;5095328;28;20441;-59
2022/04/06 01:00:21;;;;;;;8.03;6.90;;;12.00;1.00;;;;;;5096387;28;20432;-61
2022/04/06 01:02:48;;;;;;;6.10;5.50;;;;;;;;;;5109659;28;21021;-59
2022/04/06 01:05:13;;;;;;;7.60;6.90;;;12.00;1.00;;;;;;5094976;28;20265;-61
2022/04/06 01:07:42;;;;;;;9.27;7.20;;;11.90;1.00;;;;;;5107098;28;20535;-61
2022/04/06 01:10:08;;;;;;;7.67;6.93;;;11.90;1.00;;;;;;5107870;28;20187;-62
2022/04/06 01:12:38;;;;;;;8.23;7.10;;;11.90;1.00;;;;;;5098627;28;20513;-60
2022/04/06 01:15:04;;;;;;;8.27;7.33;;;11.80;1.00;;;;;;5104271;28;20179;-61
2022/04/06 01:17:34;;;;;;;7.20;6.50;;;11.80;1.00;;;;;;5100335;28;20445;-59
2022/04/06 01:20:00;;;;;;;7.30;6.60;;;11.70;1.00;;;;;;5109404;28;20447;-60
2022/04/06 01:22:27;;;;;;;7.07;6.37;;;11.70;1.00;;;;;;5108349;28;20465;-61
2022/04/06 01:24:52;;;;;;;6.80;6.20;;;11.70;1.00;;;;;;5099559;28;20672;-60
2022/04/06 01:27:18;;;;;;;6.80;6.10;;;;;;;;;;5103708;28;20444;-59
2022/04/06 01:29:46;;;;;;;7.73;6.93;;;11.70;1.00;;;;;;5101850;28;20178;-62
2022/04/06 01:32:16;;;;;;;8.37;7.33;;;11.60;1.00;;;;;;5102817;28;20890;-60
2022/04/06 01:34:44;;;;;;;8.07;7.07;;;11.60;1.00;;;;;;5096490;28;20508;-62
2022/04/06 01:37:11;;;;;;;6.97;6.03;;;11.60;1.00;;;;;;5101938;28;20480;-61
2022/04/06 01:39:39;;;;;;;73.80;45.53;;;11.60;1.00;;;;;;5111107;28;20428;-61
2022/04/06 01:42:07;;;;;;;9.97;7.00;;;11.60;1.00;;;;;;5107482;28;20436;-59
2022/04/06 01:44:33;;;;;;;8.83;6.70;;;;;;;;;;5103388;28;20446;-60
2022/04/06 01:47:00;;;;;;;8.47;7.27;;;11.50;1.00;;;;;;5098924;28;20435;-60
2022/04/06 01:52:12;;;;;;;8.93;8.03;;;11.60;1.00;;;;;;5110650;28;20458;-60
2022/04/06 01:54:46;;;;;;;9.13;8.13;;;11.60;1.00;;;;;;5094627;28;20835;-60
2022/04/06 01:57:12;;;;;;;8.43;7.53;;;11.60;1.00;;;;;;5103027;28;20548;-60
2022/04/06 01:59:37;;;;;;;9.63;8.43;;;11.60;1.00;;;;;;5104462;28;20448;-60
2022/04/06 02:02:04;;;;;;;9.13;8.23;;;11.70;1.00;;;;;;5111115;28;20435;-62
2022/04/06 02:04:30;;;;;;;8.63;7.60;;;11.70;1.00;;;;;;5103916;28;20319;-61
2022/04/06 02:06:55;;;;;;;9.10;7.80;;;11.70;1.00;;;;;;5095369;28;20464;-60
2022/04/06 02:09:21;;;;;;;8.53;7.30;;;;;;;;;;5101258;28;20216;-58
2022/04/06 02:11:47;;;;;;;11.50;8.77;;;11.80;1.00;;;;;;5096641;28;20210;-61
2022/04/06 02:14:13;;;;;;;9.80;8.17;;;11.80;1.00;;;;;;5107201;28;20444;-62
2022/04/06 02:16:40;;;;;;;9.87;8.30;;;11.70;1.00;;;;;;5101905;27;20429;-60
2022/04/06 02:19:05;;;;;;;9.03;7.63;;;11.80;1.00;;;;;;5100052;28;20174;-59
2022/04/06 02:21:32;;;;;;;9.67;8.40;;;11.70;1.00;;;;;;5106336;28;20571;-59
2022/04/06 02:23:58;;;;;;;9.03;7.97;;;;;;;;;;5093879;28;20162;-59
2022/04/06 02:26:23;;;;;;;10.50;9.50;;;11.70;1.00;;;;;;5094210;28;20810;-62
2022/04/06 02:28:49;;;;;;;10.00;8.63;;;;;;;;;;5099937;28;20444;-61
2022/04/06 02:31:15;;;;;;;10.63;8.20;;;11.70;1.00;;;;;;5096404;28;20179;-61
2022/04/06 02:33:40;;;;;;;14.50;9.10;;;11.70;1.00;;;;;;5091970;28;20464;-62
2022/04/06 02:36:06;;;;;;;9.97;8.97;;;11.70;1.00;;;;;;5091583;28;20186;-60
2022/04/06 02:38:32;;;;;;;9.70;8.70;;;11.80;1.00;;;;;;5097901;28;20174;-63
2022/04/06 02:40:57;;;;;;;10.00;8.60;;;11.80;1.00;;;;;;5091593;28;20205;-61
2022/04/06 02:43:23;;;;;;;9.07;8.10;;;11.80;1.00;;;;;;5094081;28;20175;-61
2022/04/06 02:45:48;;;;;;;9.73;8.40;;;11.80;1.00;;;;;;5093859;28;20270;-62
2022/04/06 02:48:16;;;;;;;10.90;8.97;;;11.80;1.00;;;;;;5102655;28;20197;-61
2022/04/06 02:50:41;;;;;;;9.90;8.33;;;11.80;1.00;;;;;;5096289;28;20183;-59
2022/04/06 02:53:07;;;;;;;9.67;8.77;;;11.70;1.00;;;;;;5094550;28;20538;-60
2022/04/06 02:55:33;;;;;;;9.10;7.90;;;11.70;1.00;;;;;;5092323;28;20174;-62
2022/04/06 02:57:58;;;;;;;12.10;8.67;;;11.70;1.00;;;;;;5108980;28;20170;-60
2022/04/06 03:00:24;;;;;;;11.13;8.73;;;11.90;1.00;;;;;;5092026;28;20175;-60
2022/04/06 03:02:50;;;;;;;9.37;8.40;;;;;;;;;;5099709;28;20270;-60
2022/04/06 03:05:16;;;;;;;9.90;8.73;;;11.80;1.00;;;;;;5107367;28;20195;-60
2022/04/06 03:07:42;;;;;;;9.37;8.40;;;11.80;1.00;;;;;;5097199;28;20543;-62
2022/04/06 03:10:08;;;;;;;8.73;7.83;;;11.80;1.00;;;;;;5110923;28;20178;-62
2022/04/06 03:12:34;;;;;;;9.20;7.67;;;11.90;1.00;;;;;;5105099;28;20910;-61
2022/04/06 03:14:59;;;;;;;9.10;8.20;;;11.90;1.00;;;;;;5103316;28;21217;-61
2022/04/06 03:17:25;;;;;;;10.10;8.83;;;11.90;1.00;;;;;;5095791;28;20291;-61
2022/04/06 03:19:51;;;;;;;9.53;8.60;;;;;;;;;;5102909;28;20189;-61
2022/04/06 03:22:17;;;;;;;8.97;7.83;;;11.90;1.00;;;;;;5103492;28;20605;-61
2022/04/06 03:24:49;;;;;;;10.90;8.63;;;11.90;1.00;;;;;;5104644;28;20444;-61
2022/04/06 03:27:15;;;;;;;8.50;7.60;;;11.90;1.00;;;;;;5108568;28;20178;-61
2022/04/06 03:29:40;;;;;;;10.30;8.63;;;11.80;1.00;;;;;;5110441;28;20501;-63
2022/04/06 03:32:09;;;;;;;10.33;8.27;;;11.80;1.00;;;;;;5096820;28;20214;-61
2022/04/06 03:34:36;;;;;;;10.60;8.10;;;11.90;1.00;;;;;;5091014;28;20178;-61
2022/04/06 03:37:02;;;;;;;11.10;9.20;;;11.80;1.00;;;;;;5093473;28;20490;-60
2022/04/06 03:39:27;;;;;;;9.27;8.07;;;11.80;1.00;;;;;;5099085;28;20441;-62
2022/04/06 03:41:53;;;;;;;8.03;7.23;;;11.80;1.00;;;;;;5095347;28;20198;-61
2022/04/06 03:44:18;;;;;;;8.90;8.00;;;11.90;1.00;;;;;;5097332;28;20205;-61
2022/04/06 03:46:44;;;;;;;9.10;7.67;;;11.90;1.00;;;;;;5104569;28;20182;-59
2022/04/06 03:49:09;;;;;;;8.70;7.60;;;11.90;1.00;;;;;;5104714;28;20882;-59
2022/04/06 03:51:35;;;;;;;8.33;7.30;;;11.90;1.00;;;;;;5103917;28;20273;-60
2022/04/06 03:54:01;;;;;;;9.50;7.40;;;11.90;1.00;;;;;;5102958;28;20489;-58
2022/04/06 03:56:26;;;;;;;9.00;7.60;;;11.90;1.00;;;;;;5100263;28;20194;-57
2022/04/06 03:58:52;;;;;;;9.77;8.50;;;12.00;1.00;;;;;;5096490;28;20217;-58
2022/04/06 04:01:18;;;;;;;9.73;8.77;;;12.00;1.00;;;;;;5094359;28;20239;-58
2022/04/06 04:03:43;;;;;;;8.67;7.40;;;12.00;1.00;;;;;;5094267;28;20508;-57
2022/04/06 04:06:09;;;;;;;7.63;6.70;;;11.90;1.00;;;;;;5096208;28;20656;-58
2022/04/06 04:08:34;;;;;;;8.70;7.80;;;12.00;1.00;;;;;;5098191;28;20188;-58
2022/04/06 04:11:00;;;;;;;9.20;8.20;;;12.00;1.00;;;;;;5096403;28;20615;-59
2022/04/06 04:13:25;;;;;;;8.87;7.93;;;11.90;1.00;;;;;;5094195;28;20202;-59
2022/04/06 04:15:51;;;;;;;9.70;8.60;;;11.50;1.00;;;;;;5102932;28;20182;-58
2022/04/06 04:18:17;;;;;;;9.37;7.80;;;12.00;1.00;;;;;;5096680;28;20171;-57
2022/04/06 04:20:45;;;;;;;9.47;8.27;;;12.00;1.00;;;;;;5110391;28;20186;-57
2022/04/06 04:23:11;;;;;;;8.37;7.47;;;12.00;1.00;;;;;;5101171;28;20270;-60
2022/04/06 04:25:37;;;;;;;9.03;7.80;;;12.00;1.00;;;;;;5108180;28;20813;-60
2022/04/06 04:28:03;;;;;;;10.33;8.53;;;12.10;1.00;;;;;;5096972;28;20476;-60
2022/04/06 04:30:29;;;;;;;8.83;7.90;;;12.00;1.00;;;;;;5110753;28;21935;-60
2022/04/06 04:32:55;;;;;;;9.83;8.30;;;12.00;1.00;;;;;;5097194;28;20460;-61
2022/04/06 04:35:21;;;;;;;11.63;8.07;;;12.10;1.00;;;;;;5095488;28;20187;-59
2022/04/06 04:37:46;;;;;;;8.50;7.23;;;12.10;1.00;;;;;;5096357;28;20602;-59
2022/04/06 04:40:12;;;;;;;9.27;8.17;;;12.10;1.00;;;;;;5106995;28;20189;-60
2022/04/06 04:42:38;;;;;;;9.97;7.87;;;;;;;;;;5110405;28;20624;-60
2022/04/06 04:45:05;;;;;;;10.50;9.40;;;12.20;1.00;;;;;;5102458;28;20228;-61
2022/04/06 04:47:30;;;;;;;9.07;7.60;;;12.20;1.00;;;;;;5106426;28;20441;-61
2022/04/06 04:49:57;;;;;;;8.77;7.27;;;12.10;1.00;;;;;;5098286;28;20444;-60
2022/04/06 04:52:23;;;;;;;8.37;6.93;;;12.10;1.00;;;;;;5097947;28;20207;-59
2022/04/06 04:54:49;;;;;;;10.60;8.30;;;12.10;1.00;;;;;;5104722;28;20455;-61
2022/04/06 04:57:14;;;;;;;8.00;7.10;;;12.10;1.00;;;;;;5101425;28;20186;-59
2022/04/06 04:59:40;;;;;;;12.37;10.07;;;12.10;1.00;;;;;;5110020;28;20178;-59
2022/04/06 05:02:05;;;;;;;9.27;7.37;;;12.20;1.00;;;;;;5108185;28;20182;-60
2022/04/06 05:04:31;;;;;;;9.07;7.77;;;12.20;1.00;;;;;;5103053;28;20302;-59
2022/04/06 05:06:56;;;;;;;7.93;7.13;;;12.10;1.00;;;;;;5094519;28;20183;-60
2022/04/06 05:09:22;;;;;;;8.80;6.70;;;12.10;1.00;;;;;;5112900;28;20197;-60
2022/04/06 05:11:47;;;;;;;7.67;6.87;;;12.10;1.00;;;;;;5111366;28;20198;-61
2022/04/06 05:14:13;;;;;;;7.53;6.73;;;12.20;1.00;;;;;;5095417;28;20209;-58
2022/04/06 05:16:38;;;;;;;8.13;7.00;;;12.20;1.00;;;;;;5105887;28;20185;-59
2022/04/06 05:19:04;;;;;;;7.30;6.60;;;12.10;1.00;;;;;;5104815;28;20266;-59
2022/04/06 05:21:30;;;;;;;7.63;6.53;;;12.20;1.00;;;;;;5107600;28;20205;-59
2022/04/06 05:23:57;;;;;;;9.57;6.50;;;;;;;;;;5113033;28;20178;-61
2022/04/06 05:26:23;;;;;;;8.90;7.57;;;12.20;1.00;;;;;;5096319;28;20479;-61
2022/04/06 05:28:49;;;;;;;7.80;6.97;;;12.20;1.00;;;;;;5095354;28;20945;-61
2022/04/06 05:31:17;;;;;;;8.17;7.30;;;12.20;1.00;;;;;;5102755;28;20480;-61
2022/04/06 05:33:43;;;;;;;9.37;7.77;;;12.20;1.00;;;;;;5098727;28;20195;-61
2022/04/06 05:36:09;;;;;;;6.53;5.83;;;12.40;1.00;;;;;;5103593;28;20429;-60
2022/04/06 05:38:35;;;;;;;8.20;6.57;;;12.40;1.00;;;;;;5096596;28;20489;-60
2022/04/06 05:41:02;;;;;;;8.00;7.10;;;12.50;1.00;;;;;;5092492;28;20327;-61
2022/04/06 05:43:31;;;;;;;10.73;7.37;;;12.50;1.00;;;;;;5109338;28;20188;-61
2022/04/06 05:45:56;;;;;;;9.13;6.93;;;12.70;1.00;;;;;;5107790;28;20823;-60
2022/04/06 05:48:22;;;;;;;6.73;6.03;;;12.70;1.00;;;;;;5103975;28;20193;-60
2022/04/06 05:50:47;;;;;;;7.63;6.43;;;12.80;1.00;;;;;;5102280;28;20186;-60
2022/04/06 05:56:52;;;;;;;8.10;6.00;;;;;;;;;;5049918;28;20194;-60
2022/04/06 05:59:17;;;;;;;9.73;7.40;;;12.60;1.00;;;;;;5097108;28;20808;-59
2022/04/06 06:01:42;;;;;;;8.60;6.80;;;12.60;1.00;;;;;;5096805;28;20902;-61
2022/04/06 06:04:08;;;;;;;7.23;6.43;;;12.50;1.00;;;;;;5110818;28;20301;-59
2022/04/06 06:06:35;;;;;;;7.30;6.57;;;12.30;1.00;;;;;;5101083;28;20190;-61
2022/04/06 06:09:01;;;;;;;6.60;5.90;;;12.20;1.00;;;;;;5102541;28;20177;-61
2022/04/06 06:11:27;;;;;;;7.17;6.43;;;;;;;;;;5112895;28;20497;-60
2022/04/06 06:13:52;;;;;;;6.70;6.00;;;12.20;1.00;;;;;;5109885;28;20189;-61
2022/04/06 06:16:18;;;;;;;8.23;7.23;;;12.00;1.00;;;;;;5094171;28;20602;-60
2022/04/06 06:18:43;;;;;;;8.73;7.30;;;11.90;1.00;;;;;;5110357;28;20186;-60
2022/04/06 06:21:09;;;;;;;10.40;8.23;;;11.80;1.00;;;;;;5110325;28;20504;-61
2022/04/06 06:23:35;;;;;;;8.57;7.67;;;11.70;1.00;;;;;;5092177;28;20298;-59
2022/04/06 06:26:01;;;;;;;9.90;7.53;;;11.70;1.00;;;;;;5091823;28;20195;-61
2022/04/06 06:28:27;;;;;;;9.87;8.20;;;11.70;1.00;;;;;;5101889;28;20198;-60
2022/04/06 06:30:53;;;;;;;7.87;7.00;;;11.50;1.00;;;;;;5100529;28;20444;-61
2022/04/06 06:33:18;;;;;;;10.60;7.03;;;11.30;1.00;;;;;;5096038;28;20618;-60
2022/04/06 06:35:45;;;;;;;9.17;6.90;;;11.30;1.00;;;;;;5104087;28;20187;-61
2022/04/06 06:38:11;;;;;;;8.30;6.63;;;11.00;1.00;;;;;;5102952;28;20555;-59
2022/04/06 06:40:37;;;;;;;7.93;6.73;;;11.00;1.00;;;;;;5098382;28;20425;-60
2022/04/06 06:43:02;;;;;;;9.20;6.53;;;11.00;1.00;;;;;;5093343;28;20467;-60
2022/04/06 06:45:28;;;;;;;8.27;6.40;;;11.00;1.00;;;;;;5104755;28;20187;-62
2022/04/06 06:47:53;;;;;;;10.20;6.80;;;11.00;1.00;;;;;;5100584;28;20190;-58
2022/04/06 06:50:19;;;;;;;6.83;5.80;;;11.00;1.00;;;;;;5104949;28;20290;-61
2022/04/06 06:52:45;;;;;;;9.03;6.87;;;11.00;1.00;;;;;;5096039;28;20202;-59
2022/04/06 06:55:11;;;;;;;8.13;6.43;;;11.10;1.00;;;;;;5096002;28;20442;-58
2022/04/06 06:57:37;;;;;;;7.17;5.90;;;;;;;;;;5111544;28;20435;-61
2022/04/06 07:00:06;;;;;;;8.80;6.47;;;11.40;1.00;;;;;;5111318;28;20182;-60
2022/04/06 07:02:32;;;;;;;8.33;7.03;;;11.40;1.00;;;;;;5108460;28;20479;-60
2022/04/06 07:04:57;;;;;;;7.63;6.47;;;11.60;1.00;;;;;;5111406;28;20444;-61
2022/04/06 07:07:23;;;;;;;13.53;7.80;;;11.80;1.00;;;;;;5109683;28;20194;-59
2022/04/06 07:09:48;;;;;;;7.83;6.90;;;11.70;1.00;;;;;;5109300;28;20178;-61
2022/04/06 07:12:14;;;;;;;8.10;6.93;;;11.70;1.00;;;;;;5102268;28;20199;-60
2022/04/06 07:14:39;;;;;;;8.80;5.90;;;11.70;1.00;;;;;;5095805;28;20547;-61
2022/04/06 07:17:06;;;;;;;10.53;6.73;;;12.20;1.00;;;;;;5093211;28;20236;-60
2022/04/06 07:19:31;;;;;;;10.67;8.60;;;12.50;1.00;;;;;;5091227;28;20512;-61
2022/04/06 07:21:57;;;;;;;8.77;6.80;;;12.70;1.00;;;;;;5104761;28;20178;-61
2022/04/06 07:24:22;;;;;;;10.93;8.97;;;12.70;1.00;;;;;;5099410;28;20182;-61
2022/04/06 07:26:48;;;;;;;9.83;7.40;;;13.30;1.00;;;;;;5093128;28;20270;-59
2022/04/06 07:29:15;;;;;;;13.30;6.70;;;13.60;1.00;;;;;;5095241;28;20222;-61
2022/04/06 07:31:44;;;;;;;8.63;7.00;;;13.80;1.00;;;;;;5095219;28;20179;-61
2022/04/06 07:34:10;;;;;;;8.23;5.70;;;13.80;1.00;;;;;;5107317;28;20431;-62
2022/04/06 07:36:36;;;;;;;7.77;5.70;;;14.20;1.00;;;;;;5091237;28;20478;-62
2022/04/06 07:39:03;;;;;;;8.47;6.50;;;14.30;1.00;;;;;;5090925;28;20515;-62
2022/04/06 07:41:30;;;;;;;10.80;6.53;;;14.30;1.00;;;;;;5092323;28;20940;-61
2022/04/06 07:43:56;;;;;;;7.07;6.37;;;;;;;;;;5106464;28;20443;-62
2022/04/06 07:46:22;;;;;;;16.03;6.43;;;14.40;1.00;;;;;;5099551;28;20452;-60
2022/04/06 07:48:47;;;;;;;9.83;6.30;;;14.40;1.00;;;;;;5100805;28;20447;-61
2022/04/06 07:51:13;;;;;;;9.20;6.03;;;14.30;1.00;;;;;;5091223;28;20270;-61
2022/04/06 07:53:39;;;;;;;5.97;5.37;;;14.20;1.00;;;;;;5109927;28;20217;-63
2022/04/06 07:56:06;;;;;;;7.97;5.67;;;14.10;1.00;;;;;;5107492;28;20228;-62
2022/04/06 07:58:32;;;;;;;7.67;5.90;;;14.10;1.00;;;;;;5100144;28;20185;-60
2022/04/06 08:00:58;;;;;;;5.90;4.70;;;13.90;1.00;;;;;;5090112;28;20428;-60
2022/04/06 08:03:23;;;;;;;7.53;4.80;;;13.90;1.00;;;;;;5091362;28;20463;-60
2022/04/06 08:05:50;;;;;;;10.53;6.47;;;13.80;1.00;;;;;;5090950;28;20281;-62
2022/04/06 08:08:16;;;;;;;7.53;5.73;;;13.90;1.00;;;;;;5090311;28;20537;-63
2022/04/06 08:10:42;;;;;;;4.43;4.03;;;;;;;;;;5090407;28;21005;-61
2022/04/06 08:13:08;;;;;;;6.70;4.57;;;14.00;1.00;;;;;;5097852;28;20194;-62
2022/04/06 08:15:33;;;;;;;5.90;4.87;;;14.00;1.00;;;;;;5101194;28;20539;-63
2022/04/06 08:17:59;;;;;;;6.40;5.37;;;14.20;1.00;;;;;;5095097;28;20186;-62
2022/04/06 08:20:26;;;;;;;9.90;4.53;;;14.30;1.00;;;;;;5102528;28;20235;-62
2022/04/06 08:22:52;;;;;;;6.60;4.43;;;14.40;1.00;;;;;;5110219;28;20206;-62
2022/04/06 08:25:18;;;;;;;7.70;4.20;;;14.30;1.00;;;;;;5094938;28;20519;-62
2022/04/06 08:27:44;;;;;;;8.27;4.70;;;14.50;1.00;;;;;;5102705;28;20882;-63
2022/04/06 08:30:12;;;;;;;7.50;4.07;;;14.50;1.00;;;;;;5094317;28;20948;-62
2022/04/06 08:32:38;;;;;;;5.27;3.80;;;14.60;1.00;;;;;;5104393;28;20663;-61
2022/04/06 08:35:04;;;;;;;5.10;4.30;;;14.50;1.00;;;;;;5097247;28;20437;-61
2022/04/06 08:37:31;;;;;;;8.73;4.40;;;14.70;1.00;;;;;;5097812;28;20273;-62
2022/04/06 08:39:57;;;;;;;7.60;5.50;;;;;;;;;;5105429;28;20489;-62
2022/04/06 08:42:25;;;;;;;5.00;4.10;;;14.90;1.00;;;;;;5107543;28;20566;-61
2022/04/06 08:44:51;;;;;;;6.23;4.40;;;15.00;1.00;;;;;;5101282;28;20456;-62
2022/04/06 08:47:18;;;;;;;5.10;3.73;;;15.20;1.00;;;;;;5102836;28;20459;-61
2022/04/06 08:49:45;;;;;;;5.70;4.13;;;15.30;1.00;;;;;;5104109;28;20494;-63
2022/04/06 08:52:12;;;;;;;4.10;3.50;;;15.40;1.00;;;;;;5106319;28;20569;-60
2022/04/06 08:54:38;;;;;;;6.47;4.10;;;15.40;1.00;;;;;;5102172;28;20472;-61
2022/04/06 08:57:05;;;;;;;6.33;4.43;;;15.40;1.00;;;;;;5090820;28;20964;-59
2022/04/06 08:59:31;;;;;;;5.60;4.20;;;;;;;;;;5095867;28;20436;-61
2022/04/06 09:01:56;;;;;;;5.30;4.00;;;15.30;1.00;;;;;;5092823;28;20449;-60
2022/04/06 09:04:23;;;;;;;5.40;4.40;;;15.50;1.00;;;;;;5096229;28;20480;-63
2022/04/06 09:06:50;;;;;;;4.33;3.57;;;15.50;1.00;;;;;;5097778;28;20185;-61
2022/04/06 09:09:24;;;;;;;5.63;4.40;;;15.50;1.00;;;;;;5109423;28;20440;-61
2022/04/06 09:11:50;;;;;;;4.83;3.17;;;15.70;1.00;;;;;;5103328;28;20501;-60
2022/04/06 09:14:28;;;;;;;5.80;3.93;;;15.80;1.00;;;;;;5105768;28;20825;-60
2022/04/06 09:17:01;;;;;;;5.67;4.00;;;15.80;1.00;;;;;;5104702;28;20488;-60
2022/04/06 09:19:27;;;;;;;6.03;4.10;;;15.90;1.00;;;;;;5101528;28;20451;-61
2022/04/06 09:21:54;;;;;;;6.40;4.00;;;15.00;1.00;;;;;;5104462;28;20921;-62
2022/04/06 09:24:21;;;;;;;4.70;4.20;;;;;;;;;;5093309;28;20547;-61
2022/04/06 09:27:01;;;;;;;6.40;4.57;;;14.20;1.00;;;;;;5109680;28;20485;-59
2022/04/06 09:29:27;;;;;;;5.40;4.53;;;13.70;1.00;;;;;;5098537;28;20944;-61
2022/04/06 09:31:54;;;;;;;4.63;3.93;;;13.80;1.00;;;;;;5108770;28;20540;-62
2022/04/06 09:34:27;;;;;;;5.50;4.30;;;13.80;1.00;;;;;;5103958;28;21085;-61
2022/04/06 09:36:58;;;;;;;5.27;4.77;;;14.10;1.00;;;;;;5093594;28;20429;-61
2022/04/06 09:39:48;;;;;;;5.43;4.70;;;14.20;1.00;;;;;;5105299;28;21396;-59
2022/04/06 09:42:34;;;;;;;5.47;3.90;;;14.30;1.00;;;;;;5096630;28;20448;-60
2022/04/06 09:47:58;;;;;;;4.40;4.00;;;15.40;1.00;;;;;;5101850;28;20438;-62
2022/04/06 09:50:29;;;;;;;5.30;4.80;;;16.00;1.00;;;;;;5092919;28;20468;-62
2022/04/06 09:52:59;;;;;;;6.00;4.40;;;16.20;1.00;;;;;;5092743;28;20514;-63
2022/04/06 09:55:25;;;;;;;5.00;4.20;;;16.40;1.00;;;;;;5095648;28;20862;-62
2022/04/06 09:57:55;;;;;;;4.60;4.20;;;16.40;1.00;;;;;;5092529;28;20890;-62
2022/04/06 10:00:32;;;;;;;6.03;4.70;;;15.80;1.00;;;;;;5092348;28;20252;-62
2022/04/06 10:03:09;;;;;;;7.10;4.83;;;15.60;1.00;;;;;;5098404;28;20464;-62
2022/04/06 10:05:38;;;;;;;5.10;4.60;;;15.50;1.00;;;;;;5104444;28;20808;-61
2022/04/06 10:08:09;;;;;;;4.70;3.87;;;15.10;1.00;;;;;;5098638;28;20502;-61
2022/04/06 10:10:40;;;;;;;4.40;4.00;;;15.20;1.00;;;;;;5100796;28;20440;-62
2022/04/06 10:13:07;;;;;;;6.83;4.23;;;15.40;1.00;;;;;;5101417;28;20813;-60
2022/04/06 10:15:35;;;;;;;9.43;5.00;;;15.60;1.00;;;;;;5110368;28;20440;-62
2022/04/06 10:18:01;;;;;;;5.30;4.53;;;15.50;1.00;;;;;;5100756;28;20433;-60
2022/04/06 10:20:36;;;;;;;5.77;4.10;;;15.50;1.00;;;;;;5104798;28;20447;-61
2022/04/06 10:23:19;;;;;;;5.20;4.60;;;15.70;1.00;;;;;;5111955;28;20446;-60
2022/04/06 10:25:51;;;;;;;6.53;4.40;;;15.60;1.00;;;;;;5094517;28;20451;-62
2022/04/06 10:28:18;;;;;;;4.43;4.03;;;15.50;1.00;;;;;;5107943;28;20980;-61
2022/04/06 10:31:22;;;;;;;4.73;4.27;;;15.70;1.00;;;;;;5106684;28;21158;-61
2022/04/06 10:33:49;;;;;;;4.27;3.67;;;15.80;1.00;;;;;;5103599;28;20468;-61
2022/04/06 10:36:30;;;;;;;5.40;3.80;;;15.80;1.00;;;;;;5099014;28;20450;-61
2022/04/06 10:39:10;;;;;;;5.77;4.33;;;15.70;1.00;;;;;;5097402;28;20436;-60
2022/04/06 10:41:39;;;;;;;5.10;3.80;;;15.70;1.00;;;;;;5091804;28;20432;-61
2022/04/06 10:44:05;;;;;;;4.50;3.73;;;;;;;;;;5091888;28;20531;-60
2022/04/06 10:46:38;;;;;;;4.33;3.27;;;15.90;1.00;;;;;;5110575;28;20485;-61
2022/04/06 10:49:07;;;;;;;6.30;3.93;;;16.20;1.00;;;;;;5111205;28;20940;-62
2022/04/06 10:51:33;;;;;;;6.30;4.00;;;15.90;1.00;;;;;;5109628;28;20435;-62
2022/04/06 10:54:08;;;;;;;4.73;3.80;;;16.00;1.00;;;;;;5104502;28;20478;-62
2022/04/06 10:56:48;;;;;;;6.07;4.13;;;16.60;1.00;;;;;;5108665;28;20520;-59
2022/04/06 10:59:18;;;;;;;3.67;3.10;;;16.90;1.00;;;;;;5102163;28;20459;-62
2022/04/06 11:01:46;;;;;;;5.10;3.20;;;16.80;1.00;;;;;;5091105;28;20452;-61
2022/04/06 11:04:22;;;;;;;6.73;4.30;;;16.40;1.00;;;;;;5103538;28;20510;-61
2022/04/06 11:06:49;;;;;;;4.40;3.93;;;16.50;1.00;;;;;;5101205;28;20437;-61
2022/04/06 11:12:12;;;;;;;5.70;3.87;;;;;;;;;;5095767;28;20494;-61
2022/04/06 11:14:38;;;;;;;4.27;3.77;;;16.30;1.00;;;;;;5093894;28;20440;-61
2022/04/06 11:17:34;;;;;;;5.53;3.90;;;16.40;1.00;;;;;;5103105;28;20437;-61
2022/04/06 11:20:01;;;;;;;3.43;3.13;;;;;;;;;;5102503;28;20182;-60
2022/04/06 11:22:27;;;;;;;4.67;3.97;;;;;;;;;;5104270;28;20432;-62
2022/04/06 11:24:56;;;;;;;4.20;3.63;;;17.40;1.00;;;;;;5109800;28;20439;-61
2022/04/06 11:27:28;;;;;;;4.90;4.07;;;17.50;1.00;;;;;;5110584;28;20448;-60
2022/04/06 11:30:02;;;;;;;4.80;4.00;;;17.60;1.00;;;;;;5110803;28;20464;-61
2022/04/06 11:32:29;;;;;;;4.37;3.97;;;17.60;1.00;;;;;;5099919;28;20547;-62
2022/04/06 11:35:05;;;;;;;4.80;3.80;;;17.80;1.00;;;;;;5101730;28;20435;-60
2022/04/06 11:37:37;;;;;;;4.20;3.80;;;17.70;1.00;;;;;;5090898;28;20451;-61
2022/04/06 11:40:04;;;;;;;4.77;4.27;;;17.50;1.00;;;;;;5091602;28;20525;-63
2022/04/06 11:42:30;;;;;;;4.80;4.03;;;;;;;;;;5104563;28;20522;-61
2022/04/06 11:44:56;;;;;;;5.17;4.27;;;17.40;1.00;;;;;;5093311;28;20530;-61
2022/04/06 11:47:33;;;;;;;5.03;4.53;;;17.30;1.00;;;;;;5090804;28;20478;-60
2022/04/06 11:50:00;;;;;;;5.60;4.87;;;16.70;1.00;;;;;;5095899;28;20573;-63
2022/04/06 11:52:27;;;;;;;7.07;5.30;;;16.80;1.00;;;;;;5100690;28;20540;-60
2022/04/06 11:54:55;;;;;;;6.20;5.60;;;16.70;1.00;;;;;;5095150;28;20905;-61
2022/04/06 11:57:31;;;;;;;5.03;3.63;;;16.70;1.00;;;;;;5102390;28;20432;-60
2022/04/06 11:59:57;;;;;;;10.27;5.03;;;17.00;1.00;;;;;;5102956;28;20921;-61
2022/04/06 12:02:22;;;;;;;5.40;4.53;;;17.10;1.00;;;;;;5094615;28;20443;-60
2022/04/06 12:05:04;;;;;;;5.57;4.53;;;17.50;1.00;;;;;;5097759;28;20343;-62
2022/04/06 12:07:31;;;;;;;5.73;5.00;;;17.90;1.00;;;;;;5090349;28;20251;-61
2022/04/06 12:09:57;;;;;;;11.70;5.27;;;18.10;1.00;;;;;;5092918;28;20448;-60
2022/04/06 12:12:24;;;;;;;5.47;4.90;;;18.20;1.00;;;;;;5107646;28;20464;-61
2022/04/06 12:14:52;;;;;;;5.63;5.13;;;18.40;1.00;;;;;;5104361;28;20436;-61
2022/04/06 12:17:18;;;;;;;5.60;5.10;;;17.70;1.00;;;;;;5101278;28;20459;-61
2022/04/06 12:19:44;;;;;;;5.70;4.83;;;17.30;1.00;;;;;;5109337;28;20428;-64
2022/04/06 12:22:11;;;;;;;4.50;4.10;;;17.30;1.00;;;;;;5091775;28;20522;-61
2022/04/06 12:24:42;;;;;;;6.80;4.07;;;17.30;1.00;;;;;;5102988;28;20198;-61
2022/04/06 12:27:08;;;;;;;5.60;4.50;;;17.20;1.00;;;;;;5110161;28;20436;-61
2022/04/06 12:29:35;;;;;;;4.60;4.20;;;17.00;1.00;;;;;;5110266;28;20439;-61
2022/04/06 12:32:03;;;;;;;5.37;4.50;;;17.20;1.00;;;;;;5107863;28;20913;-61
2022/04/06 12:34:33;;;;;;;5.07;4.57;;;17.20;1.00;;;;;;5108824;28;20432;-60
2022/04/06 12:36:59;;;;;;;5.43;4.93;;;17.20;1.00;;;;;;5092516;28;20445;-60
2022/04/06 12:39:25;;;;;;;5.80;4.57;;;17.30;1.00;;;;;;5097775;28;20428;-60
2022/04/06 12:42:07;;;;;;;5.53;4.40;;;17.30;1.00;;;;;;5104171;28;20437;-62
2022/04/06 12:44:34;;;;;;;6.10;4.87;;;17.10;1.00;;;;;;5113872;28;20447;-61
2022/04/06 12:47:01;;;;;;;6.70;5.43;;;17.10;1.00;;;;;;5114545;28;20932;-60
2022/04/06 12:49:37;;;;;;;6.40;5.00;;;17.00;1.00;;;;;;5114115;28;20432;-60
2022/04/06 12:52:21;;;;;;;7.40;5.40;;;16.50;1.00;;;;;;5114209;28;20956;-59
2022/04/06 12:55:07;;;;;;;6.30;5.13;;;16.40;1.00;;;;;;5114489;28;20436;-61
2022/04/06 12:57:35;;;;;;;6.40;5.77;;;16.40;1.00;;;;;;5113278;27;20431;-60
2022/04/06 13:00:02;;;;;;;5.37;4.57;;;16.50;1.00;;;;;;5094341;28;20435;-62
2022/04/06 13:02:30;;;;;;;5.20;4.70;;;16.90;1.00;;;;;;5093940;28;20447;-59
2022/04/06 13:05:07;;;;;;;7.63;3.93;;;17.10;1.00;;;;;;5098422;28;20592;-61
2022/04/06 13:07:35;;;;;;;7.90;5.13;;;17.10;1.00;;;;;;5113573;28;20431;-61
2022/04/06 13:10:02;;;;;;;5.50;5.10;;;17.20;1.00;;;;;;5101303;28;20502;-60
2022/04/06 13:12:30;;;;;;;8.77;4.93;;;17.20;1.00;;;;;;5109874;28;20554;-61
2022/04/06 13:14:57;;;;;;;6.43;4.60;;;17.50;1.00;;;;;;5105787;28;20441;-62
2022/04/06 13:17:24;;;;;;;5.30;4.80;;;17.40;1.00;;;;;;5103180;28;20495;-60